UKBBEVRA

Guest
Details From UKBB - Boryspil
To EVRA - Riga Intl
Flight Number -
Tags Decoded
Created
Modified
Stats Distance 465 nm / 861 km
Max Altitude 0 ft / 0 m
Waypoints 2
Social Downloads 2
Likes 0
Share VATSIM

Download

Looking for another format? Having issues loading an existing format? Contact us
Advertisement - Login to hide

Notes

Decoded

Route

UKBB EVRA

ID Type Via Altitude Latitude Longitude Leg Dist Tot Dist Heading (true) Name
O UKBB APT - 0 ft / 0 m 50.36056˚ 30.90660˚ - 0 nm - -
O EVRA APT - 0 ft / 0 m 56.93507˚ 23.97308˚ 465 nm 465 nm 331° / 325° -

Altitude Profile

Advertisement - Login to hide

Weather


0- 5 10 15 20 25 30 35+ Temperature / ° C

Clouds and Precipitation
Forecast for 2018-05-27 18:00 UTC. Updated an hour ago

Ground ~20,000 ft ~40,000 ft Winds

UKBB

Details ICAO UKBB (KBP)
Name Boryspil
Region Ukraine
Timezone Europe/Kiev (UTC+3.0)
Stats Elevation 421 ft / 128 m (AMSL)
Location 50.339472° 30.892903°
Runways 2
Magnetic Variation 7.722° E

METAR

UKBB 271800Z 07002MPS 010V120 CAVOK 17/01 Q1024 R88/D NOSIG

Decode

TAF

TAF UKBB 271704Z 2718/2818 06003MPS CAVOK TX25/2813Z TN07/2802Z BECMG 2807/2809 06005G10MPS

Decode

Departure Runways

ID Width Length Bearing (true) Bearing (mag) Surface Threshold Offset Overrun Length
18L 197 ft / 60 m 13,152 ft / 4,009 m 182.72° 175.00° Concrete 0 ft / 0 m 295 ft / 90 m
18R 207 ft / 63 m 11,470 ft / 3,496 m 182.62° 174.90° Concrete 0 ft / 0 m 164 ft / 50 m
36L 207 ft / 63 m 11,470 ft / 3,496 m 2.62° 354.90° Concrete 0 ft / 0 m 164 ft / 50 m
36R 197 ft / 60 m 13,152 ft / 4,009 m 2.72° 355.00° Concrete 0 ft / 0 m 295 ft / 90 m

EVRA

Details ICAO EVRA (RIX)
Name Riga Intl
Region Latvia
Timezone Europe/Riga (UTC+3.0)
Stats Elevation 34 ft / 10 m (AMSL)
Location 56.923662° 23.971193°
Runways 1
Magnetic Variation 7.721° E

METAR

EVRA 271750Z 35007KT CAVOK 20/12 Q1025 NOSIG

Decode

TAF

TAF TAF EVRA 271400Z 2715/2815 35010KT CAVOK BECMG 2720/2722 07005KT PROB40 TEMPO 2723/2804 3000 BR

Decode

Destination Runways

ID Width Length Bearing (true) Bearing (mag) Surface Threshold Offset Overrun Length
18 148 ft / 45 m 8,358 ft / 2,548 m 185.15° 177.43° Asphalt 0 ft / 0 m 170 ft / 52 m
36 148 ft / 45 m 8,358 ft / 2,548 m 5.14° 357.42° Asphalt 0 ft / 0 m 170 ft / 52 m

Approach Navaids

Runway Type Ident Frequency Range Bearing (true) Bearing (mag) Slope Elevation
18 Localiser IAO 110.30 MHz 18 nm / 33 km 185.14° 177.42° - 34 ft / 10 m (AMSL)
18 Glidescope IAO 110.30 MHz 10 nm / 19 km 185.15° 177.42° 3.00° 34 ft / 10 m (AMSL)
18 DME IAO 110.30 MHz 18 nm / 33 km - - - 0 ft / 0 m (AMSL)
36 Localiser IRP 110.30 MHz 18 nm / 33 km 5.14° 357.42° - 34 ft / 10 m (AMSL)
36 Glidescope IRP 110.30 MHz 10 nm / 19 km 5.14° 357.42° 3.00° 34 ft / 10 m (AMSL)
36 DME IRP 110.30 MHz 18 nm / 33 km - - - 0 ft / 0 m (AMSL)

Popular Alternatives